sensor_id;sensor_type;location;lat;lon;timestamp;P1;durP1;ratioP1;P2;durP2;ratioP2
26540;SDS011;14206;50.202;10.948;2023-07-30T00:02:23;1.27;;;1.17;;
26540;SDS011;14206;50.202;10.948;2023-07-30T00:04:50;1.60;;;1.10;;
26540;SDS011;14206;50.202;10.948;2023-07-30T00:10:13;1.25;;;1.15;;
26540;SDS011;14206;50.202;10.948;2023-07-30T00:12:40;1.38;;;1.27;;
26540;SDS011;14206;50.202;10.948;2023-07-30T00:15:07;1.45;;;1.35;;
26540;SDS011;14206;50.202;10.948;2023-07-30T00:17:34;1.58;;;1.20;;
26540;SDS011;14206;50.202;10.948;2023-07-30T00:20:01;2.45;;;1.33;;
26540;SDS011;14206;50.202;10.948;2023-07-30T00:22:29;1.20;;;1.10;;
26540;SDS011;14206;50.202;10.948;2023-07-30T00:24:56;1.73;;;1.30;;
26540;SDS011;14206;50.202;10.948;2023-07-30T00:27:22;1.38;;;1.20;;
26540;SDS011;14206;50.202;10.948;2023-07-30T00:29:49;1.40;;;1.00;;
26540;SDS011;14206;50.202;10.948;2023-07-30T00:32:16;1.20;;;1.10;;
26540;SDS011;14206;50.202;10.948;2023-07-30T00:34:43;1.30;;;1.20;;
26540;SDS011;14206;50.202;10.948;2023-07-30T00:37:10;1.15;;;1.13;;
26540;SDS011;14206;50.202;10.948;2023-07-30T00:39:42;1.33;;;1.23;;
26540;SDS011;14206;50.202;10.948;2023-07-30T00:42:09;1.70;;;1.35;;
26540;SDS011;14206;50.202;10.948;2023-07-30T00:44:36;1.42;;;1.33;;
26540;SDS011;14206;50.202;10.948;2023-07-30T00:47:03;1.30;;;1.20;;
26540;SDS011;14206;50.202;10.948;2023-07-30T00:49:30;1.40;;;1.30;;
26540;SDS011;14206;50.202;10.948;2023-07-30T00:51:57;1.40;;;1.30;;
26540;SDS011;14206;50.202;10.948;2023-07-30T00:54:24;1.50;;;1.40;;
26540;SDS011;14206;50.202;10.948;2023-07-30T00:56:52;1.30;;;1.20;;
26540;SDS011;14206;50.202;10.948;2023-07-30T00:59:22;1.00;;;1.00;;
26540;SDS011;14206;50.202;10.948;2023-07-30T01:01:51;1.08;;;0.98;;
26540;SDS011;14206;50.202;10.948;2023-07-30T01:04:19;1.67;;;1.45;;
26540;SDS011;14206;50.202;10.948;2023-07-30T01:06:46;3.63;;;1.30;;
26540;SDS011;14206;50.202;10.948;2023-07-30T01:09:13;1.58;;;1.20;;
26540;SDS011;14206;50.202;10.948;2023-07-30T01:11:40;1.40;;;1.30;;
26540;SDS011;14206;50.202;10.948;2023-07-30T01:14:08;1.35;;;1.13;;
26540;SDS011;14206;50.202;10.948;2023-07-30T01:16:36;1.00;;;1.00;;
26540;SDS011;14206;50.202;10.948;2023-07-30T01:19:10;1.10;;;1.10;;
26540;SDS011;14206;50.202;10.948;2023-07-30T01:21:43;1.38;;;1.27;;
26540;SDS011;14206;50.202;10.948;2023-07-30T01:24:11;1.20;;;1.10;;
26540;SDS011;14206;50.202;10.948;2023-07-30T01:26:45;1.33;;;1.23;;
26540;SDS011;14206;50.202;10.948;2023-07-30T01:32:11;1.05;;;1.02;;
26540;SDS011;14206;50.202;10.948;2023-07-30T01:34:40;1.02;;;1.02;;
26540;SDS011;14206;50.202;10.948;2023-07-30T01:37:08;1.10;;;1.10;;
26540;SDS011;14206;50.202;10.948;2023-07-30T01:39:37;1.27;;;1.17;;
26540;SDS011;14206;50.202;10.948;2023-07-30T01:42:06;1.20;;;1.10;;
26540;SDS011;14206;50.202;10.948;2023-07-30T01:44:34;2.50;;;1.00;;
26540;SDS011;14206;50.202;10.948;2023-07-30T01:47:01;1.30;;;1.20;;
26540;SDS011;14206;50.202;10.948;2023-07-30T01:49:28;1.02;;;1.00;;
26540;SDS011;14206;50.202;10.948;2023-07-30T01:51:55;1.30;;;1.20;;
26540;SDS011;14206;50.202;10.948;2023-07-30T01:54:22;0.90;;;0.90;;
26540;SDS011;14206;50.202;10.948;2023-07-30T01:56:49;1.20;;;1.10;;
26540;SDS011;14206;50.202;10.948;2023-07-30T01:59:16;1.60;;;1.20;;
26540;SDS011;14206;50.202;10.948;2023-07-30T02:01:43;1.05;;;1.02;;
26540;SDS011;14206;50.202;10.948;2023-07-30T02:04:11;0.95;;;0.90;;
26540;SDS011;14206;50.202;10.948;2023-07-30T02:06:38;0.90;;;0.90;;
26540;SDS011;14206;50.202;10.948;2023-07-30T02:09:07;1.20;;;1.10;;
26540;SDS011;14206;50.202;10.948;2023-07-30T02:11:34;1.30;;;1.17;;
26540;SDS011;14206;50.202;10.948;2023-07-30T02:14:02;1.15;;;1.05;;
26540;SDS011;14206;50.202;10.948;2023-07-30T02:16:29;2.25;;;1.10;;
26540;SDS011;14206;50.202;10.948;2023-07-30T02:18:56;2.35;;;1.15;;
26540;SDS011;14206;50.202;10.948;2023-07-30T02:21:23;1.10;;;1.00;;
26540;SDS011;14206;50.202;10.948;2023-07-30T02:23:49;1.10;;;1.02;;
26540;SDS011;14206;50.202;10.948;2023-07-30T02:26:16;1.48;;;1.00;;
26540;SDS011;14206;50.202;10.948;2023-07-30T02:28:43;1.40;;;1.08;;
26540;SDS011;14206;50.202;10.948;2023-07-30T02:31:10;1.10;;;1.00;;
26540;SDS011;14206;50.202;10.948;2023-07-30T02:33:37;1.40;;;1.00;;
26540;SDS011;14206;50.202;10.948;2023-07-30T02:36:04;1.35;;;0.90;;
26540;SDS011;14206;50.202;10.948;2023-07-30T02:38:31;0.98;;;0.90;;
26540;SDS011;14206;50.202;10.948;2023-07-30T02:40:58;1.02;;;1.00;;
26540;SDS011;14206;50.202;10.948;2023-07-30T02:43:25;1.05;;;1.00;;
26540;SDS011;14206;50.202;10.948;2023-07-30T02:45:51;2.42;;;1.20;;
26540;SDS011;14206;50.202;10.948;2023-07-30T02:48:18;1.83;;;0.90;;
26540;SDS011;14206;50.202;10.948;2023-07-30T02:50:45;1.30;;;1.20;;
26540;SDS011;14206;50.202;10.948;2023-07-30T02:53:12;1.58;;;1.13;;
26540;SDS011;14206;50.202;10.948;2023-07-30T02:55:39;0.98;;;0.98;;
26540;SDS011;14206;50.202;10.948;2023-07-30T02:58:06;1.27;;;1.20;;
26540;SDS011;14206;50.202;10.948;2023-07-30T03:00:33;0.80;;;0.80;;
26540;SDS011;14206;50.202;10.948;2023-07-30T03:02:59;1.00;;;1.00;;
26540;SDS011;14206;50.202;10.948;2023-07-30T03:05:27;1.30;;;1.20;;
26540;SDS011;14206;50.202;10.948;2023-07-30T03:07:54;0.90;;;0.90;;
26540;SDS011;14206;50.202;10.948;2023-07-30T03:10:21;1.02;;;1.02;;
26540;SDS011;14206;50.202;10.948;2023-07-30T03:12:47;1.20;;;1.10;;
26540;SDS011;14206;50.202;10.948;2023-07-30T03:15:14;1.15;;;1.13;;
26540;SDS011;14206;50.202;10.948;2023-07-30T03:17:41;1.40;;;1.30;;
26540;SDS011;14206;50.202;10.948;2023-07-30T03:20:08;2.40;;;1.40;;
26540;SDS011;14206;50.202;10.948;2023-07-30T03:22:35;1.80;;;1.10;;
26540;SDS011;14206;50.202;10.948;2023-07-30T03:25:02;1.40;;;1.30;;
26540;SDS011;14206;50.202;10.948;2023-07-30T03:27:30;1.45;;;1.30;;
26540;SDS011;14206;50.202;10.948;2023-07-30T03:29:57;1.35;;;1.20;;
26540;SDS011;14206;50.202;10.948;2023-07-30T03:32:23;1.20;;;1.15;;
26540;SDS011;14206;50.202;10.948;2023-07-30T03:34:50;1.30;;;1.20;;
26540;SDS011;14206;50.202;10.948;2023-07-30T03:37:19;1.00;;;1.00;;
26540;SDS011;14206;50.202;10.948;2023-07-30T03:39:45;1.10;;;1.10;;
26540;SDS011;14206;50.202;10.948;2023-07-30T03:42:12;2.13;;;0.98;;
26540;SDS011;14206;50.202;10.948;2023-07-30T03:44:39;1.20;;;1.10;;
26540;SDS011;14206;50.202;10.948;2023-07-30T03:47:06;1.40;;;1.08;;
26540;SDS011;14206;50.202;10.948;2023-07-30T03:49:33;0.98;;;0.98;;
26540;SDS011;14206;50.202;10.948;2023-07-30T03:52:00;1.05;;;0.95;;
26540;SDS011;14206;50.202;10.948;2023-07-30T03:54:27;0.90;;;0.90;;
26540;SDS011;14206;50.202;10.948;2023-07-30T03:56:54;1.25;;;1.15;;
26540;SDS011;14206;50.202;10.948;2023-07-30T03:59:21;1.50;;;1.20;;
26540;SDS011;14206;50.202;10.948;2023-07-30T04:01:48;2.05;;;1.17;;
26540;SDS011;14206;50.202;10.948;2023-07-30T04:04:15;0.90;;;0.90;;
26540;SDS011;14206;50.202;10.948;2023-07-30T04:06:42;1.48;;;1.38;;
26540;SDS011;14206;50.202;10.948;2023-07-30T04:09:09;1.40;;;1.30;;
26540;SDS011;14206;50.202;10.948;2023-07-30T04:11:37;1.40;;;1.27;;
26540;SDS011;14206;50.202;10.948;2023-07-30T04:14:04;1.30;;;1.20;;
26540;SDS011;14206;50.202;10.948;2023-07-30T04:16:34;1.40;;;1.30;;
26540;SDS011;14206;50.202;10.948;2023-07-30T04:19:01;1.50;;;1.40;;
26540;SDS011;14206;50.202;10.948;2023-07-30T04:21:28;1.50;;;1.40;;
26540;SDS011;14206;50.202;10.948;2023-07-30T04:23:55;1.05;;;1.05;;
26540;SDS011;14206;50.202;10.948;2023-07-30T04:26:22;1.30;;;1.20;;
26540;SDS011;14206;50.202;10.948;2023-07-30T04:28:49;0.98;;;0.98;;
26540;SDS011;14206;50.202;10.948;2023-07-30T04:31:15;1.02;;;0.98;;
26540;SDS011;14206;50.202;10.948;2023-07-30T04:33:43;1.08;;;1.08;;
26540;SDS011;14206;50.202;10.948;2023-07-30T04:36:10;0.82;;;0.82;;
26540;SDS011;14206;50.202;10.948;2023-07-30T04:38:37;4.13;;;1.15;;
26540;SDS011;14206;50.202;10.948;2023-07-30T04:41:03;1.20;;;1.10;;
26540;SDS011;14206;50.202;10.948;2023-07-30T04:43:36;1.30;;;1.20;;
26540;SDS011;14206;50.202;10.948;2023-07-30T04:46:03;2.55;;;1.13;;
26540;SDS011;14206;50.202;10.948;2023-07-30T04:48:30;1.27;;;1.08;;
26540;SDS011;14206;50.202;10.948;2023-07-30T04:50:57;1.40;;;1.10;;
26540;SDS011;14206;50.202;10.948;2023-07-30T04:53:24;1.35;;;1.20;;
26540;SDS011;14206;50.202;10.948;2023-07-30T04:55:55;1.25;;;1.15;;
26540;SDS011;14206;50.202;10.948;2023-07-30T04:58:23;1.60;;;1.50;;
26540;SDS011;14206;50.202;10.948;2023-07-30T05:00:50;2.28;;;1.80;;
26540;SDS011;14206;50.202;10.948;2023-07-30T05:03:17;1.50;;;1.40;;
26540;SDS011;14206;50.202;10.948;2023-07-30T05:05:44;1.90;;;1.80;;
26540;SDS011;14206;50.202;10.948;2023-07-30T05:08:11;1.40;;;1.30;;
26540;SDS011;14206;50.202;10.948;2023-07-30T05:10:38;1.60;;;1.50;;
26540;SDS011;14206;50.202;10.948;2023-07-30T05:13:05;1.48;;;1.27;;
26540;SDS011;14206;50.202;10.948;2023-07-30T05:15:32;1.50;;;1.40;;
26540;SDS011;14206;50.202;10.948;2023-07-30T05:18:01;2.70;;;1.33;;
26540;SDS011;14206;50.202;10.948;2023-07-30T05:20:28;1.20;;;1.10;;
26540;SDS011;14206;50.202;10.948;2023-07-30T05:22:55;1.92;;;1.50;;
26540;SDS011;14206;50.202;10.948;2023-07-30T05:25:22;1.50;;;1.40;;
26540;SDS011;14206;50.202;10.948;2023-07-30T05:27:49;1.70;;;1.60;;
26540;SDS011;14206;50.202;10.948;2023-07-30T05:30:16;1.75;;;1.50;;
26540;SDS011;14206;50.202;10.948;2023-07-30T05:32:43;1.70;;;1.60;;
26540;SDS011;14206;50.202;10.948;2023-07-30T05:35:10;1.52;;;1.42;;
26540;SDS011;14206;50.202;10.948;2023-07-30T05:37:37;1.98;;;1.77;;
26540;SDS011;14206;50.202;10.948;2023-07-30T05:40:04;1.70;;;1.60;;
26540;SDS011;14206;50.202;10.948;2023-07-30T05:42:31;1.55;;;1.45;;
26540;SDS011;14206;50.202;10.948;2023-07-30T05:44:58;1.58;;;1.48;;
26540;SDS011;14206;50.202;10.948;2023-07-30T05:47:25;1.60;;;1.50;;
26540;SDS011;14206;50.202;10.948;2023-07-30T05:49:55;2.00;;;1.80;;
26540;SDS011;14206;50.202;10.948;2023-07-30T05:52:22;1.52;;;1.42;;
26540;SDS011;14206;50.202;10.948;2023-07-30T05:54:49;1.70;;;1.60;;
26540;SDS011;14206;50.202;10.948;2023-07-30T05:57:16;1.77;;;1.65;;
26540;SDS011;14206;50.202;10.948;2023-07-30T05:59:43;2.08;;;1.58;;
26540;SDS011;14206;50.202;10.948;2023-07-30T06:02:10;3.15;;;1.55;;
26540;SDS011;14206;50.202;10.948;2023-07-30T06:04:37;1.60;;;1.50;;
26540;SDS011;14206;50.202;10.948;2023-07-30T06:07:03;2.45;;;1.40;;
26540;SDS011;14206;50.202;10.948;2023-07-30T06:09:30;1.60;;;1.50;;
26540;SDS011;14206;50.202;10.948;2023-07-30T06:11:57;1.88;;;1.73;;
26540;SDS011;14206;50.202;10.948;2023-07-30T06:14:25;1.65;;;1.55;;
26540;SDS011;14206;50.202;10.948;2023-07-30T06:16:53;1.65;;;1.55;;
26540;SDS011;14206;50.202;10.948;2023-07-30T06:19:20;1.90;;;1.75;;
26540;SDS011;14206;50.202;10.948;2023-07-30T06:21:47;2.35;;;2.15;;
26540;SDS011;14206;50.202;10.948;2023-07-30T06:24:14;2.58;;;2.03;;
26540;SDS011;14206;50.202;10.948;2023-07-30T06:26:40;2.35;;;2.15;;
26540;SDS011;14206;50.202;10.948;2023-07-30T06:29:07;2.20;;;2.00;;
26540;SDS011;14206;50.202;10.948;2023-07-30T06:31:34;2.22;;;2.03;;
26540;SDS011;14206;50.202;10.948;2023-07-30T06:34:02;2.30;;;2.10;;
26540;SDS011;14206;50.202;10.948;2023-07-30T06:36:29;2.05;;;1.95;;
26540;SDS011;14206;50.202;10.948;2023-07-30T06:38:56;2.58;;;2.00;;
26540;SDS011;14206;50.202;10.948;2023-07-30T06:41:23;1.77;;;1.67;;
26540;SDS011;14206;50.202;10.948;2023-07-30T06:43:50;2.15;;;1.85;;
26540;SDS011;14206;50.202;10.948;2023-07-30T06:46:17;2.42;;;2.22;;
26540;SDS011;14206;50.202;10.948;2023-07-30T06:48:44;2.25;;;1.95;;
26540;SDS011;14206;50.202;10.948;2023-07-30T06:51:11;2.95;;;1.42;;
26540;SDS011;14206;50.202;10.948;2023-07-30T06:53:41;2.40;;;2.20;;
26540;SDS011;14206;50.202;10.948;2023-07-30T06:56:08;1.70;;;1.60;;
26540;SDS011;14206;50.202;10.948;2023-07-30T06:58:37;2.53;;;1.55;;
26540;SDS011;14206;50.202;10.948;2023-07-30T07:01:06;2.72;;;1.60;;
26540;SDS011;14206;50.202;10.948;2023-07-30T07:03:33;1.63;;;1.52;;
26540;SDS011;14206;50.202;10.948;2023-07-30T07:06:00;2.53;;;1.70;;
26540;SDS011;14206;50.202;10.948;2023-07-30T07:08:27;2.03;;;1.83;;
26540;SDS011;14206;50.202;10.948;2023-07-30T07:10:54;1.70;;;1.60;;
26540;SDS011;14206;50.202;10.948;2023-07-30T07:13:22;2.42;;;1.25;;
26540;SDS011;14206;50.202;10.948;2023-07-30T07:15:48;1.48;;;1.30;;
26540;SDS011;14206;50.202;10.948;2023-07-30T07:18:15;2.28;;;1.63;;
26540;SDS011;14206;50.202;10.948;2023-07-30T07:20:42;2.67;;;1.83;;
26540;SDS011;14206;50.202;10.948;2023-07-30T07:23:09;1.60;;;1.40;;
26540;SDS011;14206;50.202;10.948;2023-07-30T07:25:39;1.95;;;1.70;;
26540;SDS011;14206;50.202;10.948;2023-07-30T07:28:06;1.48;;;1.38;;
26540;SDS011;14206;50.202;10.948;2023-07-30T07:30:34;1.90;;;1.70;;
26540;SDS011;14206;50.202;10.948;2023-07-30T07:33:02;1.60;;;1.50;;
26540;SDS011;14206;50.202;10.948;2023-07-30T07:35:31;1.48;;;1.38;;
26540;SDS011;14206;50.202;10.948;2023-07-30T07:37:58;1.20;;;1.10;;
26540;SDS011;14206;50.202;10.948;2023-07-30T07:40:25;1.30;;;1.20;;
26540;SDS011;14206;50.202;10.948;2023-07-30T07:42:52;1.40;;;1.30;;
26540;SDS011;14206;50.202;10.948;2023-07-30T07:45:19;1.10;;;1.00;;
26540;SDS011;14206;50.202;10.948;2023-07-30T07:47:45;2.47;;;1.38;;
26540;SDS011;14206;50.202;10.948;2023-07-30T07:50:13;1.40;;;1.20;;
26540;SDS011;14206;50.202;10.948;2023-07-30T07:52:41;2.35;;;1.00;;
26540;SDS011;14206;50.202;10.948;2023-07-30T07:55:08;1.00;;;1.00;;
26540;SDS011;14206;50.202;10.948;2023-07-30T07:57:35;1.10;;;1.00;;
26540;SDS011;14206;50.202;10.948;2023-07-30T08:00:04;0.80;;;0.80;;
26540;SDS011;14206;50.202;10.948;2023-07-30T08:02:37;1.20;;;1.10;;
26540;SDS011;14206;50.202;10.948;2023-07-30T08:05:04;0.90;;;0.90;;
26540;SDS011;14206;50.202;10.948;2023-07-30T08:07:31;1.10;;;1.05;;
26540;SDS011;14206;50.202;10.948;2023-07-30T08:09:58;1.38;;;1.00;;
26540;SDS011;14206;50.202;10.948;2023-07-30T08:12:25;0.80;;;0.80;;
26540;SDS011;14206;50.202;10.948;2023-07-30T08:14:52;1.20;;;1.10;;
26540;SDS011;14206;50.202;10.948;2023-07-30T08:17:18;1.38;;;0.85;;
26540;SDS011;14206;50.202;10.948;2023-07-30T08:19:47;0.70;;;0.70;;
26540;SDS011;14206;50.202;10.948;2023-07-30T08:22:14;0.98;;;0.90;;
26540;SDS011;14206;50.202;10.948;2023-07-30T08:24:40;0.82;;;0.82;;
26540;SDS011;14206;50.202;10.948;2023-07-30T08:27:07;1.10;;;0.80;;
26540;SDS011;14206;50.202;10.948;2023-07-30T08:29:34;3.72;;;1.10;;
26540;SDS011;14206;50.202;10.948;2023-07-30T08:32:05;0.90;;;0.90;;
26540;SDS011;14206;50.202;10.948;2023-07-30T08:34:32;0.90;;;0.90;;
26540;SDS011;14206;50.202;10.948;2023-07-30T08:36:59;0.98;;;0.98;;
26540;SDS011;14206;50.202;10.948;2023-07-30T08:39:25;1.08;;;0.98;;
26540;SDS011;14206;50.202;10.948;2023-07-30T08:41:52;0.90;;;0.90;;
26540;SDS011;14206;50.202;10.948;2023-07-30T08:44:20;0.68;;;0.68;;
26540;SDS011;14206;50.202;10.948;2023-07-30T08:46:46;1.30;;;1.00;;
26540;SDS011;14206;50.202;10.948;2023-07-30T08:49:13;0.68;;;0.50;;
26540;SDS011;14206;50.202;10.948;2023-07-30T08:51:40;0.50;;;0.50;;
26540;SDS011;14206;50.202;10.948;2023-07-30T08:54:09;0.47;;;0.47;;
26540;SDS011;14206;50.202;10.948;2023-07-30T08:56:43;0.50;;;0.50;;
26540;SDS011;14206;50.202;10.948;2023-07-30T08:59:09;0.60;;;0.60;;
26540;SDS011;14206;50.202;10.948;2023-07-30T09:01:37;0.52;;;0.52;;
26540;SDS011;14206;50.202;10.948;2023-07-30T09:04:06;0.60;;;0.60;;
26540;SDS011;14206;50.202;10.948;2023-07-30T09:06:35;0.80;;;0.80;;
26540;SDS011;14206;50.202;10.948;2023-07-30T09:09:01;1.15;;;0.90;;
26540;SDS011;14206;50.202;10.948;2023-07-30T09:11:29;0.57;;;0.57;;
26540;SDS011;14206;50.202;10.948;2023-07-30T09:13:56;0.60;;;0.60;;
26540;SDS011;14206;50.202;10.948;2023-07-30T09:16:24;0.60;;;0.60;;
26540;SDS011;14206;50.202;10.948;2023-07-30T09:18:52;0.77;;;0.50;;
26540;SDS011;14206;50.202;10.948;2023-07-30T09:21:29;0.50;;;0.50;;
26540;SDS011;14206;50.202;10.948;2023-07-30T09:24:06;0.47;;;0.47;;
26540;SDS011;14206;50.202;10.948;2023-07-30T09:26:44;0.60;;;0.60;;
26540;SDS011;14206;50.202;10.948;2023-07-30T09:29:12;1.10;;;0.80;;
26540;SDS011;14206;50.202;10.948;2023-07-30T09:31:46;0.77;;;0.77;;
26540;SDS011;14206;50.202;10.948;2023-07-30T09:34:17;0.60;;;0.60;;
26540;SDS011;14206;50.202;10.948;2023-07-30T09:36:47;0.52;;;0.52;;
26540;SDS011;14206;50.202;10.948;2023-07-30T09:41:49;0.70;;;0.70;;
26540;SDS011;14206;50.202;10.948;2023-07-30T09:44:18;0.70;;;0.70;;
26540;SDS011;14206;50.202;10.948;2023-07-30T09:46:46;1.00;;;0.75;;
26540;SDS011;14206;50.202;10.948;2023-07-30T09:49:15;0.95;;;0.60;;
26540;SDS011;14206;50.202;10.948;2023-07-30T09:51:42;0.50;;;0.50;;
26540;SDS011;14206;50.202;10.948;2023-07-30T09:54:14;0.40;;;0.40;;
26540;SDS011;14206;50.202;10.948;2023-07-30T09:56:41;0.88;;;0.65;;
26540;SDS011;14206;50.202;10.948;2023-07-30T09:59:09;0.60;;;0.60;;
26540;SDS011;14206;50.202;10.948;2023-07-30T10:01:38;0.50;;;0.50;;
26540;SDS011;14206;50.202;10.948;2023-07-30T10:04:12;0.40;;;0.40;;
26540;SDS011;14206;50.202;10.948;2023-07-30T10:06:46;0.40;;;0.40;;
26540;SDS011;14206;50.202;10.948;2023-07-30T10:09:21;0.45;;;0.45;;
26540;SDS011;14206;50.202;10.948;2023-07-30T10:11:50;0.63;;;0.60;;
26540;SDS011;14206;50.202;10.948;2023-07-30T10:14:21;1.05;;;0.60;;
26540;SDS011;14206;50.202;10.948;2023-07-30T10:16:50;0.50;;;0.50;;
26540;SDS011;14206;50.202;10.948;2023-07-30T10:19:22;0.50;;;0.50;;
26540;SDS011;14206;50.202;10.948;2023-07-30T10:21:50;0.60;;;0.60;;
26540;SDS011;14206;50.202;10.948;2023-07-30T10:24:17;0.55;;;0.55;;
26540;SDS011;14206;50.202;10.948;2023-07-30T10:26:44;1.00;;;0.73;;
26540;SDS011;14206;50.202;10.948;2023-07-30T10:31:51;0.68;;;0.68;;
26540;SDS011;14206;50.202;10.948;2023-07-30T10:34:26;0.65;;;0.65;;
26540;SDS011;14206;50.202;10.948;2023-07-30T10:37:09;0.40;;;0.40;;
26540;SDS011;14206;50.202;10.948;2023-07-30T10:39:36;0.50;;;0.50;;
26540;SDS011;14206;50.202;10.948;2023-07-30T10:42:03;0.50;;;0.50;;
26540;SDS011;14206;50.202;10.948;2023-07-30T10:44:33;0.60;;;0.50;;
26540;SDS011;14206;50.202;10.948;2023-07-30T10:47:01;0.50;;;0.50;;
26540;SDS011;14206;50.202;10.948;2023-07-30T10:49:35;0.60;;;0.60;;
26540;SDS011;14206;50.202;10.948;2023-07-30T10:52:03;0.95;;;0.82;;
26540;SDS011;14206;50.202;10.948;2023-07-30T10:54:34;1.67;;;1.00;;
26540;SDS011;14206;50.202;10.948;2023-07-30T10:57:02;2.50;;;0.90;;
26540;SDS011;14206;50.202;10.948;2023-07-30T10:59:33;2.25;;;0.80;;
26540;SDS011;14206;50.202;10.948;2023-07-30T11:02:02;0.95;;;0.82;;
26540;SDS011;14206;50.202;10.948;2023-07-30T11:04:33;1.00;;;0.80;;
26540;SDS011;14206;50.202;10.948;2023-07-30T11:07:01;0.82;;;0.80;;
26540;SDS011;14206;50.202;10.948;2023-07-30T11:09:30;1.48;;;0.80;;
26540;SDS011;14206;50.202;10.948;2023-07-30T11:11:57;1.13;;;0.93;;
26540;SDS011;14206;50.202;10.948;2023-07-30T11:14:24;0.85;;;0.80;;
26540;SDS011;14206;50.202;10.948;2023-07-30T11:16:58;1.27;;;0.90;;
26540;SDS011;14206;50.202;10.948;2023-07-30T11:19:26;1.38;;;0.90;;
26540;SDS011;14206;50.202;10.948;2023-07-30T11:21:55;1.10;;;1.00;;
26540;SDS011;14206;50.202;10.948;2023-07-30T11:24:35;0.95;;;0.93;;
26540;SDS011;14206;50.202;10.948;2023-07-30T11:27:03;1.45;;;1.08;;
26540;SDS011;14206;50.202;10.948;2023-07-30T11:29:31;1.05;;;1.00;;
26540;SDS011;14206;50.202;10.948;2023-07-30T11:31:58;1.27;;;1.10;;
26540;SDS011;14206;50.202;10.948;2023-07-30T11:34:26;0.77;;;0.77;;
26540;SDS011;14206;50.202;10.948;2023-07-30T11:36:54;2.25;;;1.00;;
26540;SDS011;14206;50.202;10.948;2023-07-30T11:39:22;0.80;;;0.80;;
26540;SDS011;14206;50.202;10.948;2023-07-30T11:41:50;0.70;;;0.70;;
26540;SDS011;14206;50.202;10.948;2023-07-30T11:47:20;0.85;;;0.70;;
26540;SDS011;14206;50.202;10.948;2023-07-30T11:49:55;1.10;;;1.00;;
26540;SDS011;14206;50.202;10.948;2023-07-30T11:55:00;0.70;;;0.70;;
26540;SDS011;14206;50.202;10.948;2023-07-30T11:57:34;0.60;;;0.60;;
26540;SDS011;14206;50.202;10.948;2023-07-30T12:00:01;0.80;;;0.60;;
26540;SDS011;14206;50.202;10.948;2023-07-30T12:02:37;1.65;;;0.60;;
26540;SDS011;14206;50.202;10.948;2023-07-30T12:05:05;0.65;;;0.65;;
26540;SDS011;14206;50.202;10.948;2023-07-30T12:07:41;0.50;;;0.50;;
26540;SDS011;14206;50.202;10.948;2023-07-30T12:10:11;1.00;;;0.80;;
26540;SDS011;14206;50.202;10.948;2023-07-30T12:12:45;0.80;;;0.60;;
26540;SDS011;14206;50.202;10.948;2023-07-30T12:15:12;0.77;;;0.77;;
26540;SDS011;14206;50.202;10.948;2023-07-30T12:17:39;0.77;;;0.70;;
26540;SDS011;14206;50.202;10.948;2023-07-30T12:20:06;0.80;;;0.80;;
26540;SDS011;14206;50.202;10.948;2023-07-30T12:22:34;0.95;;;0.77;;
26540;SDS011;14206;50.202;10.948;2023-07-30T12:25:04;0.85;;;0.80;;
26540;SDS011;14206;50.202;10.948;2023-07-30T12:27:31;0.80;;;0.80;;
26540;SDS011;14206;50.202;10.948;2023-07-30T12:29:59;0.70;;;0.70;;
26540;SDS011;14206;50.202;10.948;2023-07-30T12:32:26;0.65;;;0.65;;
26540;SDS011;14206;50.202;10.948;2023-07-30T12:34:54;1.10;;;0.80;;
26540;SDS011;14206;50.202;10.948;2023-07-30T12:37:21;1.45;;;0.70;;
26540;SDS011;14206;50.202;10.948;2023-07-30T12:39:48;1.25;;;0.90;;
26540;SDS011;14206;50.202;10.948;2023-07-30T12:42:18;0.98;;;0.88;;
26540;SDS011;14206;50.202;10.948;2023-07-30T12:44:45;1.38;;;1.27;;
26540;SDS011;14206;50.202;10.948;2023-07-30T12:47:12;1.48;;;1.00;;
26540;SDS011;14206;50.202;10.948;2023-07-30T12:49:42;1.52;;;1.08;;
26540;SDS011;14206;50.202;10.948;2023-07-30T12:52:09;1.42;;;1.27;;
26540;SDS011;14206;50.202;10.948;2023-07-30T12:54:36;1.10;;;1.00;;
26540;SDS011;14206;50.202;10.948;2023-07-30T12:57:03;1.30;;;0.90;;
26540;SDS011;14206;50.202;10.948;2023-07-30T12:59:30;1.25;;;1.10;;
26540;SDS011;14206;50.202;10.948;2023-07-30T13:01:57;0.90;;;0.90;;
26540;SDS011;14206;50.202;10.948;2023-07-30T13:04:25;0.98;;;0.75;;
26540;SDS011;14206;50.202;10.948;2023-07-30T13:06:54;1.33;;;0.70;;
26540;SDS011;14206;50.202;10.948;2023-07-30T13:09:21;0.98;;;0.80;;
26540;SDS011;14206;50.202;10.948;2023-07-30T13:11:48;0.50;;;0.50;;
26540;SDS011;14206;50.202;10.948;2023-07-30T13:14:15;1.77;;;0.60;;
26540;SDS011;14206;50.202;10.948;2023-07-30T13:16:42;1.35;;;0.70;;
26540;SDS011;14206;50.202;10.948;2023-07-30T13:19:09;1.50;;;0.65;;
26540;SDS011;14206;50.202;10.948;2023-07-30T13:21:36;1.10;;;0.60;;
26540;SDS011;14206;50.202;10.948;2023-07-30T13:24:04;1.00;;;0.90;;
26540;SDS011;14206;50.202;10.948;2023-07-30T13:26:31;1.23;;;0.70;;
26540;SDS011;14206;50.202;10.948;2023-07-30T13:28:58;0.98;;;0.68;;
26540;SDS011;14206;50.202;10.948;2023-07-30T13:31:24;1.17;;;0.65;;
26540;SDS011;14206;50.202;10.948;2023-07-30T13:33:51;0.88;;;0.60;;
26540;SDS011;14206;50.202;10.948;2023-07-30T13:36:18;0.50;;;0.50;;
26540;SDS011;14206;50.202;10.948;2023-07-30T13:38:46;1.35;;;0.70;;
26540;SDS011;14206;50.202;10.948;2023-07-30T13:41:12;1.15;;;0.85;;
26540;SDS011;14206;50.202;10.948;2023-07-30T13:43:39;2.25;;;0.77;;
26540;SDS011;14206;50.202;10.948;2023-07-30T13:46:06;0.88;;;0.60;;
26540;SDS011;14206;50.202;10.948;2023-07-30T13:48:33;1.60;;;0.90;;
26540;SDS011;14206;50.202;10.948;2023-07-30T13:51:10;1.08;;;0.73;;
26540;SDS011;14206;50.202;10.948;2023-07-30T13:53:37;0.70;;;0.70;;
26540;SDS011;14206;50.202;10.948;2023-07-30T13:56:07;0.85;;;0.60;;
26540;SDS011;14206;50.202;10.948;2023-07-30T13:58:34;0.93;;;0.70;;
26540;SDS011;14206;50.202;10.948;2023-07-30T14:01:01;0.73;;;0.70;;
26540;SDS011;14206;50.202;10.948;2023-07-30T14:03:28;1.20;;;0.55;;
26540;SDS011;14206;50.202;10.948;2023-07-30T14:05:55;1.27;;;0.60;;
26540;SDS011;14206;50.202;10.948;2023-07-30T14:08:22;1.48;;;0.50;;
26540;SDS011;14206;50.202;10.948;2023-07-30T14:10:49;0.85;;;0.60;;
26540;SDS011;14206;50.202;10.948;2023-07-30T14:13:16;0.75;;;0.60;;
26540;SDS011;14206;50.202;10.948;2023-07-30T14:15:43;2.22;;;0.70;;
26540;SDS011;14206;50.202;10.948;2023-07-30T14:18:10;0.50;;;0.50;;
26540;SDS011;14206;50.202;10.948;2023-07-30T14:20:37;0.40;;;0.40;;
26540;SDS011;14206;50.202;10.948;2023-07-30T14:23:04;0.90;;;0.40;;
26540;SDS011;14206;50.202;10.948;2023-07-30T14:25:31;0.82;;;0.50;;
26540;SDS011;14206;50.202;10.948;2023-07-30T14:27:59;1.00;;;0.50;;
26540;SDS011;14206;50.202;10.948;2023-07-30T14:30:26;0.38;;;0.30;;
26540;SDS011;14206;50.202;10.948;2023-07-30T14:32:52;0.90;;;0.60;;
26540;SDS011;14206;50.202;10.948;2023-07-30T14:35:19;1.63;;;0.85;;
26540;SDS011;14206;50.202;10.948;2023-07-30T14:37:46;1.33;;;0.68;;
26540;SDS011;14206;50.202;10.948;2023-07-30T14:40:13;0.68;;;0.57;;
26540;SDS011;14206;50.202;10.948;2023-07-30T14:42:40;0.95;;;0.65;;
26540;SDS011;14206;50.202;10.948;2023-07-30T14:45:07;0.75;;;0.50;;
26540;SDS011;14206;50.202;10.948;2023-07-30T14:47:35;0.70;;;0.70;;
26540;SDS011;14206;50.202;10.948;2023-07-30T14:50:02;1.00;;;0.82;;
26540;SDS011;14206;50.202;10.948;2023-07-30T14:52:29;0.98;;;0.70;;
26540;SDS011;14206;50.202;10.948;2023-07-30T14:54:56;2.15;;;0.90;;